createdAt,value
2022-11-09T00:01:56.654Z,100178.88
2022-11-09T00:04:26.170Z,100170.53
2022-11-09T00:06:55.659Z,100162.25
2022-11-09T00:09:25.196Z,100174.06
2022-11-09T00:11:55.230Z,100174.97
2022-11-09T00:14:24.659Z,100170.34
2022-11-09T00:16:54.098Z,100170.00
2022-11-09T00:19:24.639Z,100157.81
2022-11-09T00:21:54.135Z,100170.00
2022-11-09T00:24:23.567Z,100179.50
2022-11-09T00:26:52.997Z,100183.22
2022-11-09T00:29:22.502Z,100182.53
2022-11-09T00:31:52.033Z,100173.16
2022-11-09T00:34:21.390Z,100180.38
2022-11-09T00:36:49.962Z,100177.47
2022-11-09T00:39:19.525Z,100174.91
2022-11-09T00:41:48.924Z,100176.09
2022-11-09T00:44:18.259Z,100170.88
2022-11-09T00:46:47.630Z,100172.41
2022-11-09T00:49:17.047Z,100183.16
2022-11-09T00:51:46.500Z,100169.94
2022-11-09T00:54:17.699Z,100170.50
2022-11-09T00:56:46.323Z,100168.22
2022-11-09T00:59:15.902Z,100165.84
2022-11-09T01:01:45.290Z,100170.34
2022-11-09T01:04:14.783Z,100175.41
2022-11-09T01:06:44.277Z,100167.56
2022-11-09T01:09:13.779Z,100156.22
2022-11-09T01:11:43.160Z,100167.31
2022-11-09T01:14:12.644Z,100154.72
2022-11-09T01:16:42.065Z,100152.00
2022-11-09T01:19:10.631Z,100165.41
2022-11-09T01:21:40.098Z,100152.00
2022-11-09T01:24:10.373Z,100154.59
2022-11-09T01:26:39.898Z,100154.59
2022-11-09T01:29:09.290Z,100133.13
2022-11-09T01:31:38.744Z,100154.34
2022-11-09T01:34:08.221Z,100142.00
2022-11-09T01:36:37.628Z,100138.63
2022-11-09T01:39:07.108Z,100140.31
2022-11-09T01:41:36.427Z,100128.00
2022-11-09T01:44:16.453Z,100130.75
2022-11-09T01:47:12.769Z,100135.91
2022-11-09T01:49:59.797Z,100142.38
2022-11-09T01:52:37.704Z,100137.25
2022-11-09T01:55:18.723Z,100145.47
2022-11-09T01:58:07.765Z,100137.03
2022-11-09T02:00:39.136Z,100134.97
2022-11-09T02:03:33.466Z,100130.94
2022-11-09T02:06:09.135Z,100123.41
2022-11-09T02:08:39.781Z,100118.69
2022-11-09T02:11:21.170Z,100117.72
2022-11-09T02:13:58.998Z,100116.97
2022-11-09T02:16:29.624Z,100115.47
2022-11-09T02:19:03.366Z,100118.19
2022-11-09T02:21:33.677Z,100115.19
2022-11-09T02:24:03.130Z,100114.34
2022-11-09T02:26:49.523Z,100109.19
2022-11-09T02:29:29.920Z,100111.84
2022-11-09T02:32:06.202Z,100110.13
2022-11-09T02:34:35.629Z,100104.88
2022-11-09T02:37:05.001Z,100116.00
2022-11-09T02:39:35.429Z,100103.78
2022-11-09T02:42:21.375Z,100113.28
2022-11-09T02:44:59.101Z,100110.50
2022-11-09T02:47:28.762Z,100111.66
2022-11-09T02:49:58.171Z,100110.25
2022-11-09T02:52:27.661Z,100107.66
2022-11-09T02:54:57.553Z,100116.56
2022-11-09T02:57:26.969Z,100108.91
2022-11-09T02:59:56.351Z,100111.78
2022-11-09T03:02:25.810Z,100103.78
2022-11-09T03:04:55.259Z,100105.78
2022-11-09T03:07:24.801Z,100100.53
2022-11-09T03:09:54.263Z,100105.16
2022-11-09T03:12:29.354Z,100112.25
2022-11-09T03:15:07.806Z,100102.59
2022-11-09T03:17:37.525Z,100098.81
2022-11-09T03:20:08.525Z,100106.09
2022-11-09T03:22:38.224Z,100096.31
2022-11-09T03:25:08.554Z,100095.22
2022-11-09T03:27:37.983Z,100100.66
2022-11-09T03:30:08.788Z,100095.94
2022-11-09T03:32:41.047Z,100107.31
2022-11-09T03:35:09.510Z,100098.22
2022-11-09T03:37:38.237Z,100095.59
2022-11-09T03:40:08.562Z,100098.72
2022-11-09T03:42:38.052Z,100106.09
2022-11-09T03:45:07.403Z,100104.88
2022-11-09T03:47:42.809Z,100109.88
2022-11-09T03:50:18.134Z,100108.34
2022-11-09T03:52:48.060Z,100114.97
2022-11-09T03:55:17.388Z,100115.22
2022-11-09T03:57:47.140Z,100109.97
2022-11-09T04:00:19.927Z,100106.59
2022-11-09T04:02:48.560Z,100103.22
2022-11-09T04:05:18.198Z,100103.78
2022-11-09T04:07:57.833Z,100096.63
2022-11-09T04:10:27.597Z,100094.66
2022-11-09T04:12:56.222Z,100102.31
2022-11-09T04:15:25.696Z,100097.97
2022-11-09T04:18:00.583Z,100083.31
2022-11-09T04:20:32.402Z,100087.75
2022-11-09T04:23:05.270Z,100102.69
2022-11-09T04:25:38.132Z,100089.25
2022-11-09T04:28:11.733Z,100088.53
2022-11-09T04:30:41.238Z,100091.06
2022-11-09T04:33:10.566Z,100093.53
2022-11-09T04:35:39.895Z,100088.81
2022-11-09T04:38:13.933Z,100093.00
2022-11-09T04:40:42.914Z,100088.22
2022-11-09T04:43:16.034Z,100080.44
2022-11-09T04:45:45.881Z,100091.03
2022-11-09T04:48:17.467Z,100082.56
2022-11-09T04:50:48.828Z,100084.59
2022-11-09T04:53:18.240Z,100084.59
2022-11-09T04:55:46.805Z,100092.53
2022-11-09T04:58:18.896Z,100092.88
2022-11-09T05:00:52.292Z,100093.72
2022-11-09T05:03:22.670Z,100094.25
2022-11-09T05:05:51.405Z,100095.41
2022-11-09T05:08:20.803Z,100096.72
2022-11-09T05:10:50.256Z,100100.81
2022-11-09T05:13:18.953Z,100100.19
2022-11-09T05:15:48.514Z,100092.09
2022-11-09T05:18:17.961Z,100091.84
2022-11-09T05:20:46.516Z,100082.31
2022-11-09T05:23:33.790Z,100089.38
2022-11-09T05:26:03.387Z,100084.59
2022-11-09T05:28:35.265Z,100095.41
2022-11-09T05:31:05.977Z,100103.50
2022-11-09T05:33:35.403Z,100089.47
2022-11-09T05:36:04.068Z,100105.00
2022-11-09T05:38:36.388Z,100102.06
2022-11-09T05:41:04.990Z,100100.69
2022-11-09T05:43:34.366Z,100107.22
2022-11-09T05:46:06.529Z,100115.41
2022-11-09T05:48:36.450Z,100111.00
2022-11-09T05:51:09.927Z,100112.06
2022-11-09T05:53:43.700Z,100112.75
2022-11-09T05:56:16.132Z,100118.81
2022-11-09T05:58:45.556Z,100112.78
2022-11-09T06:01:19.494Z,100111.63
2022-11-09T06:03:48.969Z,100115.91
2022-11-09T06:06:18.443Z,100123.44
2022-11-09T06:08:48.131Z,100118.69
2022-11-09T06:11:24.041Z,100123.16
2022-11-09T06:13:53.992Z,100128.13
2022-11-09T06:16:23.734Z,100131.72
2022-11-09T06:18:53.225Z,100127.59
2022-11-09T06:21:21.130Z,100121.44
2022-11-09T06:23:51.536Z,100125.34
2022-11-09T06:26:21.092Z,100130.13
2022-11-09T06:28:50.620Z,100124.91
2022-11-09T06:31:21.106Z,100133.09
2022-11-09T06:33:51.138Z,100123.69
2022-11-09T06:36:21.473Z,100125.69
2022-11-09T06:38:54.383Z,100135.75
2022-11-09T06:41:22.116Z,100128.38
2022-11-09T06:43:52.568Z,100137.06
2022-11-09T06:46:21.187Z,100144.75
2022-11-09T06:48:54.428Z,100125.28
2022-11-09T06:51:24.781Z,100129.16
2022-11-09T06:53:54.173Z,100138.28
2022-11-09T06:56:23.738Z,100143.53
2022-11-09T06:58:53.244Z,100138.19
2022-11-09T07:01:28.775Z,100136.47
2022-11-09T07:03:58.272Z,100131.66
2022-11-09T07:06:28.645Z,100138.47
2022-11-09T07:08:58.643Z,100139.81
2022-11-09T07:11:26.391Z,100142.75
2022-11-09T07:13:57.919Z,100137.72
2022-11-09T07:16:27.623Z,100129.84
2022-11-09T07:18:57.302Z,100138.72
2022-11-09T07:21:26.845Z,100137.47
2022-11-09T07:23:56.402Z,100135.38
2022-11-09T07:26:25.995Z,100128.31
2022-11-09T07:28:55.638Z,100135.19
2022-11-09T07:31:29.327Z,100130.19
2022-11-09T07:33:58.492Z,100129.00
2022-11-09T07:36:28.035Z,100123.22
2022-11-09T07:38:58.138Z,100116.34
2022-11-09T07:41:30.579Z,100126.41
2022-11-09T07:44:01.388Z,100117.28
2022-11-09T08:48:27.054Z,100086.63
2022-11-09T08:51:00.238Z,100096.00
2022-11-09T08:53:30.466Z,100093.69
2022-11-09T08:56:00.302Z,100104.59
2022-11-09T08:58:30.141Z,100104.09
2022-11-09T09:00:59.809Z,100106.25
2022-11-09T09:03:28.527Z,100117.66
2022-11-09T09:05:57.304Z,100106.56
2022-11-09T09:08:26.840Z,100102.09
2022-11-09T09:10:55.629Z,100107.81
2022-11-09T09:13:25.246Z,100105.31
2022-11-09T09:15:54.091Z,100107.34
2022-11-09T09:18:24.143Z,100108.56
2022-11-09T09:20:54.015Z,100104.78
2022-11-09T09:23:22.837Z,100115.50
2022-11-09T09:25:56.330Z,100111.31
2022-11-09T09:28:27.447Z,100108.06
2022-11-09T09:31:01.420Z,100111.97
2022-11-09T09:33:30.197Z,100109.97
2022-11-09T09:36:00.097Z,100110.00
2022-11-09T09:38:30.537Z,100110.50
2022-11-09T09:41:03.808Z,100107.19
2022-11-09T09:43:44.334Z,100102.34
2022-11-09T09:46:27.431Z,100117.25
2022-11-09T09:49:28.002Z,100107.22
2022-11-09T09:52:31.922Z,100097.31
2022-11-09T09:55:32.067Z,100097.16
2022-11-09T09:58:14.580Z,100094.84
2022-11-09T10:00:45.090Z,100097.16
2022-11-09T10:03:20.522Z,100070.34
2022-11-09T10:06:37.886Z,100087.63
2022-11-09T10:10:12.412Z,100077.75
2022-11-09T10:13:15.710Z,100078.44
2022-11-09T10:16:24.235Z,100073.56
2022-11-09T10:19:33.331Z,100076.19
2022-11-09T10:22:38.011Z,100063.31
2022-11-09T10:25:50.242Z,100065.75
2022-11-09T10:28:18.599Z,100080.59
2022-11-09T10:30:48.473Z,100074.91
2022-11-09T10:33:21.690Z,100086.69
2022-11-09T10:36:51.919Z,100077.44
2022-11-09T10:39:25.606Z,100072.41
2022-11-09T10:41:55.374Z,100074.03
2022-11-09T10:44:24.924Z,100063.47
2022-11-09T10:47:16.936Z,100054.72
2022-11-09T10:49:46.683Z,100051.25
2022-11-09T10:52:47.369Z,100055.44
2022-11-09T10:55:28.593Z,100062.16
2022-11-09T10:58:35.283Z,100050.41
2022-11-09T11:01:16.137Z,100044.34
2022-11-09T11:03:49.937Z,100050.22
2022-11-09T11:06:23.144Z,100051.59
2022-11-09T11:08:58.846Z,100049.69
2022-11-09T11:11:36.774Z,100053.06
2022-11-09T11:16:45.701Z,100043.72
2022-11-09T11:19:44.791Z,100035.06
2022-11-09T11:22:14.529Z,100036.66
2022-11-09T11:25:06.247Z,100032.81
2022-11-09T11:27:53.671Z,100041.78
2022-11-09T11:30:37.608Z,100036.44
2022-11-09T11:33:22.720Z,100029.47
2022-11-09T11:36:36.935Z,100023.25
2022-11-09T11:39:31.940Z,100027.13
2022-11-09T11:42:15.183Z,100036.19
2022-11-09T11:45:39.088Z,100027.75
2022-11-09T11:48:50.306Z,100029.84
2022-11-09T11:56:20.176Z,100021.03
2022-11-09T11:59:16.886Z,100012.81
2022-11-09T12:02:33.121Z,100016.38
2022-11-09T12:06:05.780Z,100010.13
2022-11-09T12:09:33.828Z,100011.72
2022-11-09T12:12:08.082Z,100012.81
2022-11-09T12:15:25.772Z,100003.47
2022-11-09T12:18:34.654Z,100004.53
2022-11-09T12:22:01.924Z,100007.59
2022-11-09T12:24:58.499Z,100002.69
2022-11-09T12:27:55.399Z,99996.16
2022-11-09T12:30:59.995Z,99999.19
2022-11-09T12:34:11.236Z,99993.63
2022-11-09T12:36:50.828Z,99972.59
2022-11-09T12:39:40.801Z,99987.72
2022-11-09T12:42:29.092Z,99983.38
2022-11-09T12:45:27.698Z,99987.06
2022-11-09T12:47:59.608Z,99983.22
2022-11-09T12:50:30.227Z,99994.00
2022-11-09T12:53:06.038Z,99980.94
2022-11-09T12:56:03.086Z,99985.59
2022-11-09T12:58:37.502Z,99980.59
2022-11-09T13:01:13.708Z,99984.22
2022-11-09T13:03:57.332Z,99980.91
2022-11-09T13:06:33.214Z,99980.13
2022-11-09T13:09:23.318Z,99983.25
2022-11-09T13:11:54.139Z,99983.78
2022-11-09T13:14:23.690Z,99989.38
2022-11-09T13:16:59.223Z,99982.03
2022-11-09T13:19:37.872Z,99986.53
2022-11-09T13:22:16.121Z,99988.16
2022-11-09T13:25:53.228Z,99981.72
2022-11-09T13:28:28.732Z,99977.25
2022-11-09T13:31:04.456Z,99975.03
2022-11-09T13:33:34.763Z,99971.78
2022-11-09T13:36:07.384Z,99979.03
2022-11-09T13:38:37.538Z,99969.84
2022-11-09T13:41:34.326Z,99970.16
2022-11-09T13:44:32.769Z,99970.00
2022-11-09T13:47:05.967Z,99971.50
2022-11-09T13:49:46.931Z,99966.91
2022-11-09T13:52:58.021Z,99964.09
2022-11-09T13:55:44.782Z,99959.22
2022-11-09T13:58:37.639Z,99966.50
2022-11-09T14:01:28.292Z,99957.59
2022-11-09T14:03:58.432Z,99965.25
2022-11-09T14:06:33.459Z,99962.56
2022-11-09T14:09:21.866Z,99968.22
2022-11-09T14:12:21.967Z,99960.63
2022-11-09T14:14:58.073Z,99960.50
2022-11-09T14:17:49.331Z,99963.88
2022-11-09T14:20:45.089Z,99965.03
2022-11-09T14:23:24.006Z,99968.94
2022-11-09T14:25:53.614Z,99970.16
2022-11-09T14:28:30.666Z,99965.66
2022-11-09T14:31:00.502Z,99964.88
2022-11-09T14:33:35.721Z,99963.78
2022-11-09T14:36:06.627Z,99962.22
2022-11-09T16:52:54.966Z,99972.84
2022-11-09T16:55:24.673Z,99981.53
2022-11-09T16:58:10.550Z,99973.94
2022-11-09T17:01:09.740Z,99982.63
2022-11-09T17:03:38.506Z,99975.19
2022-11-09T17:06:11.626Z,99977.47
2022-11-09T17:08:43.405Z,99981.09
2022-11-09T17:11:16.407Z,99970.00
2022-11-09T17:13:44.555Z,99975.94
2022-11-09T17:16:20.323Z,99960.94
2022-11-09T17:18:48.094Z,99969.28
2022-11-09T17:21:17.826Z,99970.06
2022-11-09T17:23:46.109Z,99969.22
2022-11-09T17:26:16.953Z,99968.22
2022-11-09T17:28:47.304Z,99958.94
2022-11-09T17:31:24.413Z,99959.97
2022-11-09T17:34:01.109Z,99960.09
2022-11-09T17:36:56.858Z,99957.16
2022-11-09T17:39:21.072Z,99976.03
2022-11-09T17:41:51.261Z,99953.69
2022-11-09T17:44:20.840Z,99963.22
2022-11-09T17:46:50.500Z,99947.19
2022-11-09T17:49:20.408Z,99967.03
2022-11-09T17:51:49.909Z,99970.16
2022-11-09T17:54:21.423Z,99965.16
2022-11-09T17:56:50.599Z,99968.38
2022-11-09T17:59:21.978Z,99971.19
2022-11-09T18:01:52.383Z,99966.25
2022-11-09T18:04:20.192Z,99954.38
2022-11-09T18:06:51.598Z,99964.13
2022-11-09T18:12:24.308Z,99957.25
2022-11-09T18:14:54.791Z,99948.97
2022-11-09T18:17:24.409Z,99950.47
2022-11-09T18:19:54.123Z,99944.66
2022-11-09T18:22:23.771Z,99954.06
2022-11-09T18:24:53.315Z,99948.72
2022-11-09T18:27:23.702Z,99956.41
2022-11-09T18:30:01.901Z,99952.22
2022-11-09T18:32:31.962Z,99957.97
2022-11-09T18:34:59.889Z,99949.91
2022-11-09T18:37:34.340Z,99957.41
2022-11-09T18:40:02.183Z,99950.81
2022-11-09T18:42:35.031Z,99945.72
2022-11-09T18:45:05.167Z,99947.50
2022-11-09T18:47:33.873Z,99952.94
2022-11-09T18:50:02.438Z,99944.97
2022-11-09T18:52:34.168Z,99947.13
2022-11-09T18:55:02.148Z,99948.56
2022-11-09T18:57:32.299Z,99955.03
2022-11-09T19:00:05.709Z,99956.13
2022-11-09T19:02:36.199Z,99947.50
2022-11-09T19:05:06.951Z,99951.09
2022-11-09T19:07:37.536Z,99950.94
2022-11-09T19:10:08.751Z,99959.28
2022-11-09T19:12:40.272Z,99958.50
2022-11-09T19:15:08.667Z,99955.63
2022-11-09T19:17:43.662Z,99957.66
2022-11-09T19:20:14.946Z,99957.28
2022-11-09T19:22:47.147Z,99954.97
2022-11-09T19:25:16.775Z,99955.81
2022-11-09T19:27:44.615Z,99955.28
2022-11-09T19:30:54.204Z,99961.44
2022-11-09T19:33:23.792Z,99960.50
2022-11-09T19:36:23.158Z,99955.38
2022-11-09T19:38:45.146Z,99968.81
2022-11-09T19:41:16.055Z,99971.56
2022-11-09T19:43:51.902Z,99970.22
2022-11-09T19:46:22.818Z,99967.34
2022-11-09T20:35:07.006Z,99962.56
2022-11-09T20:37:34.883Z,99948.50
2022-11-09T20:40:08.174Z,99957.38
2022-11-09T20:42:36.596Z,99943.50
2022-11-09T20:45:07.621Z,99938.66
2022-11-09T20:48:03.237Z,99936.22
2022-11-09T20:50:25.033Z,99942.47
2022-11-09T20:52:56.394Z,99946.34
2022-11-09T20:55:24.742Z,99941.94
2022-11-09T20:57:55.620Z,99939.25
2022-11-09T21:00:24.736Z,99944.91
2022-11-09T21:02:52.619Z,99947.56
2022-11-09T21:05:20.527Z,99942.44
2022-11-09T21:07:50.888Z,99939.88
2022-11-09T21:10:20.422Z,99945.69
2022-11-09T21:12:55.114Z,99945.63
2022-11-09T21:15:24.656Z,99957.28
2022-11-09T21:17:55.154Z,99956.50
2022-11-09T21:20:23.020Z,99958.25
2022-11-09T21:23:09.257Z,99959.50
2022-11-09T21:26:03.149Z,99958.44
2022-11-09T21:28:51.127Z,99953.41
2022-11-09T21:31:20.682Z,99948.38
2022-11-09T21:33:48.430Z,99949.34
2022-11-09T21:39:36.887Z,99937.31
2022-11-09T21:42:05.326Z,99949.50
2022-11-09T21:44:34.934Z,99946.31
2022-11-09T21:47:05.585Z,99944.31
2022-11-09T21:52:21.293Z,99940.69
2022-11-09T21:54:50.740Z,99933.25
2022-11-09T21:57:20.213Z,99936.44
2022-11-09T22:00:15.828Z,99944.56
2022-11-09T22:03:09.892Z,99934.78
2022-11-09T22:37:43.142Z,99927.88
2022-11-09T22:40:12.950Z,99929.69
2022-11-09T22:42:42.479Z,99929.97
2022-11-09T22:45:11.993Z,99931.44
2022-11-09T22:47:41.437Z,99931.75
2022-11-09T22:50:09.453Z,99932.72
2022-11-09T22:52:39.255Z,99927.53
2022-11-09T22:55:09.575Z,99935.22
2022-11-09T22:57:39.004Z,99915.94
2022-11-09T23:00:15.102Z,99926.38
2022-11-09T23:02:44.555Z,99930.28
2022-11-09T23:05:14.167Z,99921.91
2022-11-09T23:07:42.722Z,99923.69
2022-11-09T23:10:12.256Z,99916.88
2022-11-09T23:12:41.731Z,99915.50
2022-11-09T23:15:13.433Z,99921.38
2022-11-09T23:18:01.334Z,99922.66
2022-11-09T23:20:35.525Z,99918.94
2022-11-09T23:23:05.877Z,99925.13
2022-11-09T23:25:55.109Z,99928.00
2022-11-09T23:28:25.373Z,99910.72
2022-11-09T23:30:54.834Z,99915.22
2022-11-09T23:33:24.562Z,99915.50
2022-11-09T23:35:52.509Z,99921.41
2022-11-09T23:38:22.880Z,99914.53
2022-11-09T23:40:50.865Z,99920.88
2022-11-09T23:43:19.118Z,99924.06
2022-11-09T23:45:47.425Z,99914.19
2022-11-09T23:48:19.943Z,99923.16
2022-11-09T23:50:49.443Z,99924.25
2022-11-09T23:53:17.176Z,99916.38
2022-11-09T23:55:46.728Z,99924.25
2022-11-09T23:58:14.434Z,99922.28
